Forside
METAR-TAF:

METAR-TAF

Lufthavne :

Norwich, England

Breddekreds: 52-38N, længdekreds: 001-18E, højde: 14 m

Aktuelle vejr

Denne rapport blev lavet for 12 minutter siden, kl. 18:50 UTC
Vind 6 kt fra sydvest
Temperatur 6°C
Fugtighed 93%
Tryk 1010 hPa
Sigt: 6000 m
Brudte skyer i en højde af 300 ft
Brudte skyer i en højde af 3800 ft

METAR: EGSH 021850Z 23006KT 6000 BKN003 BKN038 06/05 Q1010

Tid: 19:02 (19:02 UTC)

Vejrudsigter

Denne rapport blev lavet for 2 timer og 1 minutter siden, kl. 17:01 UTC
Foreløbig gælder fra 02 på 18 UTC til 03 på 03 UTC
Vind 8 kt fra vestsydvest
Sigt: 4000 m
Brudte skyer i en højde af 300 ft
let finregn
ændring
fra 02 på 18 UTC til 02 på 20 UTC
Sigt 10 km eller mere
Spredte skyer i en højde af 2500 ft
Sandsynlighed 30%
fra 02 på 20 UTC til 02 på 22 UTC
Sigt: 5000 m
dis

TAF: EGSH 021701Z 0218/0303 25008KT 4000 -DZ BKN003 BECMG 0218/0220 9999 NSW SCT025 PROB30 0220/0222 5000 BR

Vejrobservationer og prognoser fra mere end 4000 lufthavne (METAR og TAF).

De gule og røde prikker repræsenterer de meteorologiske stationer.

Flyt musen over at se navnet på stationen.

Så klik over at se vejr observationer og prognoser.

At skifte det kort: Klik på de grønne knapper med et sort kors for at zoome ind; på den grønne knap med en bindestreg for at zoome ud; eller på de grønne pile for tilstødende kort.


METAR-TAF: